This is the latest recevied weather packets stored in our database for station/object KC4KQE. If no packets are shown the sender has not sent any weather packets the latest 1 day(s).
| Time | Temp. | Humidity | Pressure | Rain* | Wind** | Luminosity | Snow |
|---|---|---|---|---|---|---|---|
| 1777997356 | 18.33° C | 69% | 1012.4 hPa | 0 mm | 1.79 m/s, 110° | 251 W/m² | - |
| 1777997056 | 18.33° C | 71% | 1012.4 hPa | 0 mm | 0.89 m/s, 110° | 204 W/m² | - |
| 1777996756 | 18.33° C | 73% | 1012.4 hPa | 0 mm | 2.24 m/s, 110° | 309 W/m² | - |
| 1777996456 | 18.33° C | 72% | 1012.3 hPa | 0 mm | 0 m/s | 302 W/m² | - |
| 1777996157 | 17.78° C | 74% | 1012.2 hPa | 0 mm | 0 m/s | 155 W/m² | - |
| 1777995856 | 17.78° C | 74% | 1012.2 hPa | 0 mm | 0.45 m/s, 110° | 207 W/m² | - |
| 1777995556 | 17.78° C | 74% | 1012.2 hPa | 0 mm | 0.45 m/s, 110° | 213 W/m² | - |
| 1777995256 | 17.78° C | 74% | 1012.3 hPa | 0 mm | 0.45 m/s, 110° | 246 W/m² | - |
| 1777994956 | 17.78° C | 75% | 1012.3 hPa | 0 mm | 1.79 m/s, 110° | 260 W/m² | - |
| 1777994656 | 17.78° C | 75% | 1012.2 hPa | 0 mm | 0.45 m/s, 110° | 213 W/m² | - |
| 1777994356 | 17.78° C | 75% | 1012.2 hPa | 0 mm | 0.45 m/s, 110° | 179 W/m² | - |
| 1777994056 | 17.22° C | 75% | 1012.2 hPa | 0 mm | 0.45 m/s, 110° | 149 W/m² | - |
| 1777993756 | 17.22° C | 76% | 1012.2 hPa | 0 mm | 1.34 m/s, 110° | 128 W/m² | - |
| 1777993456 | 17.22° C | 77% | 1012.2 hPa | 0 mm | 0.89 m/s, 110° | 141 W/m² | - |
| 1777993156 | 17.22° C | 77% | 1012.2 hPa | 0 mm | 0.89 m/s, 110° | 134 W/m² | - |
| 1777992856 | 17.22° C | 77% | 1012.2 hPa | 0.25 mm | 0.89 m/s, 110° | 142 W/m² | - |
| 1777992556 | 17.22° C | 78% | 1012.2 hPa | 0.25 mm | 1.34 m/s, 110° | 178 W/m² | - |
| 1777992256 | 17.22° C | 79% | 1012.2 hPa | 0.25 mm | 1.79 m/s, 110° | 132 W/m² | - |
| 1777991957 | 17.22° C | 80% | 1012.2 hPa | 0.25 mm | 1.34 m/s, 110° | 116 W/m² | - |
| 1777991656 | 16.67° C | 80% | 1012.2 hPa | 0.25 mm | 1.34 m/s, 110° | 104 W/m² | - |
| 1777991357 | 16.67° C | 81% | 1012.1 hPa | 0.25 mm | 1.79 m/s, 110° | 77 W/m² | - |
| 1777991056 | 16.67° C | 81% | 1012.2 hPa | 0.25 mm | 2.24 m/s, 110° | 72 W/m² | - |
| 1777990756 | 16.67° C | 82% | 1012.3 hPa | 0.25 mm | 0.89 m/s, 110° | 65 W/m² | - |
| 1777990457 | 16.67° C | 82% | 1012.3 hPa | 0.25 mm | 1.79 m/s, 110° | 70 W/m² | - |
| 1777990156 | 16.67° C | 82% | 1012.3 hPa | 0.25 mm | 1.79 m/s, 110° | 56 W/m² | - |
* Rain latest hour (hover to see other rain measurements)
** Current wind speed in m/s (hover to see current wind gust speed)